createdAt,value
2019-05-13T00:00:28.529Z,0.65
2019-05-13T00:02:58.362Z,0.23
2019-05-13T00:05:28.219Z,0.75
2019-05-13T00:07:58.068Z,0.50
2019-05-13T00:10:27.950Z,0.55
2019-05-13T00:12:59.671Z,0.70
2019-05-13T00:15:33.702Z,0.40
2019-05-13T00:18:03.983Z,0.60
2019-05-13T00:20:35.238Z,0.40
2019-05-13T00:23:05.078Z,0.40
2019-05-13T00:25:34.936Z,0.50
2019-05-13T00:28:04.776Z,0.82
2019-05-13T00:30:34.686Z,0.30
2019-05-13T00:33:04.529Z,0.72
2019-05-13T00:35:34.369Z,0.50
2019-05-13T00:38:04.288Z,0.28
2019-05-13T00:40:34.166Z,0.10
2019-05-13T00:43:04.169Z,0.50
2019-05-13T00:45:35.074Z,0.10
2019-05-13T00:48:07.889Z,0.40
2019-05-13T00:53:07.458Z,0.30
2019-05-13T00:55:37.305Z,0.30
2019-05-13T00:58:13.738Z,0.78
2019-05-13T01:00:44.450Z,0.40
2019-05-13T01:03:15.569Z,0.25
2019-05-13T01:05:46.822Z,0.20
2019-05-13T01:08:17.042Z,0.20
2019-05-13T01:10:46.877Z,0.20
2019-05-13T01:13:16.722Z,0.30
2019-05-13T01:15:47.922Z,0.10
2019-05-13T01:18:18.238Z,0.23
2019-05-13T01:20:48.458Z,0.47
2019-05-13T01:23:18.308Z,0.68
2019-05-13T01:25:48.147Z,0.62
2019-05-13T01:28:17.989Z,0.20
2019-05-13T01:30:47.833Z,0.25
2019-05-13T01:33:17.997Z,0.30
2019-05-13T01:35:47.838Z,0.15
2019-05-13T01:38:17.681Z,0.20
2019-05-13T01:40:49.165Z,0.28
2019-05-13T01:43:19.332Z,0.20
2019-05-13T01:48:54.753Z,0.55
2019-05-13T01:51:24.605Z,0.40
2019-05-13T01:53:54.445Z,0.20
2019-05-13T01:56:24.294Z,0.30
2019-05-13T01:58:54.249Z,0.30
2019-05-13T02:01:24.257Z,0.35
2019-05-13T02:03:54.483Z,0.40
2019-05-13T02:06:24.417Z,0.68
2019-05-13T02:08:54.629Z,0.10
2019-05-13T02:11:26.078Z,0.10
2019-05-13T02:13:55.929Z,0.37
2019-05-13T02:16:26.112Z,0.20
2019-05-13T02:18:55.953Z,0.40
2019-05-13T02:21:25.803Z,0.50
2019-05-13T02:23:55.648Z,0.10
2019-05-13T02:26:25.477Z,0.37
2019-05-13T02:28:55.356Z,0.20
2019-05-13T02:31:39.608Z,0.23
2019-05-13T02:33:56.631Z,0.30
2019-05-13T02:36:26.466Z,0.10
2019-05-13T02:38:56.322Z,0.30
2019-05-13T02:41:26.166Z,0.62
2019-05-13T02:43:56.015Z,0.13
2019-05-13T02:46:25.868Z,0.30
2019-05-13T02:48:55.711Z,0.40
2019-05-13T02:51:25.563Z,0.25
2019-05-13T02:53:55.476Z,0.20
2019-05-13T02:56:25.326Z,0.20
2019-05-13T02:58:55.167Z,0.30
2019-05-13T03:01:25.018Z,0.20
2019-05-13T03:03:54.864Z,0.20
2019-05-13T03:06:24.703Z,0.40
2019-05-13T03:08:54.822Z,0.25
2019-05-13T03:11:24.684Z,0.20
2019-05-13T03:13:54.517Z,0.10
2019-05-13T03:16:32.197Z,0.17
2019-05-13T03:19:02.791Z,0.10
2019-05-13T03:21:32.611Z,0.33
2019-05-13T03:24:03.738Z,0.10
2019-05-13T03:26:33.722Z,0.10
2019-05-13T03:29:03.597Z,0.15
2019-05-13T03:31:36.279Z,0.10
2019-05-13T03:34:07.297Z,0.15
2019-05-13T03:36:38.493Z,0.30
2019-05-13T03:39:12.505Z,0.10
2019-05-13T03:41:42.387Z,0.20
2019-05-13T03:44:13.605Z,0.33
2019-05-13T03:46:42.786Z,0.10
2019-05-13T03:49:13.835Z,0.30
2019-05-13T03:51:44.218Z,0.70
2019-05-13T03:54:14.087Z,0.30
2019-05-13T03:56:43.936Z,0.20
2019-05-13T03:59:13.788Z,0.20
2019-05-13T04:01:43.634Z,0.35
2019-05-13T04:04:13.484Z,0.05
2019-05-13T04:06:43.334Z,0.20
2019-05-13T04:09:24.947Z,0.20
2019-05-13T04:11:44.643Z,0.20
2019-05-13T04:14:14.481Z,0.40
2019-05-13T04:16:44.330Z,0.20
2019-05-13T04:19:14.182Z,0.50
2019-05-13T04:21:44.033Z,0.30
2019-05-13T04:24:13.875Z,0.20
2019-05-13T04:26:43.725Z,0.33
2019-05-13T04:29:13.674Z,0.30
2019-05-13T04:31:43.526Z,0.20
2019-05-13T04:34:13.382Z,0.33
2019-05-13T04:36:43.338Z,0.40
2019-05-13T04:39:13.272Z,0.10
2019-05-13T04:41:43.115Z,0.40
2019-05-13T04:44:13.263Z,0.33
2019-05-13T04:46:43.624Z,0.40
2019-05-13T04:49:13.555Z,0.30
2019-05-13T04:51:43.411Z,0.30
2019-05-13T04:54:13.377Z,0.20
2019-05-13T04:56:43.294Z,0.20
2019-05-13T04:59:13.140Z,0.25
2019-05-13T05:02:22.676Z,0.10
2019-05-13T05:05:32.615Z,0.23
2019-05-13T05:08:32.814Z,0.68
2019-05-13T05:11:22.683Z,0.40
2019-05-13T05:14:07.900Z,0.30
2019-05-13T05:16:56.192Z,0.23
2019-05-13T05:19:47.345Z,0.33
2019-05-13T05:22:34.023Z,0.20
2019-05-13T05:25:12.935Z,0.37
2019-05-13T05:28:21.629Z,0.30
2019-05-13T05:31:05.507Z,2.55
2019-05-13T05:34:13.729Z,3.65
2019-05-13T05:36:51.994Z,0.95
2019-05-13T05:39:25.334Z,0.80
2019-05-13T05:41:56.479Z,0.70
2019-05-13T05:44:28.354Z,0.33
2019-05-13T05:47:02.189Z,0.33
2019-05-13T05:49:32.030Z,0.30
2019-05-13T05:52:04.574Z,0.30
2019-05-13T05:54:36.459Z,0.47
2019-05-13T05:57:06.933Z,0.47
2019-05-13T05:59:37.818Z,1.20
2019-05-13T06:02:07.984Z,1.00
2019-05-13T06:04:38.921Z,0.88
2019-05-13T06:07:08.835Z,0.40
2019-05-13T06:09:38.756Z,0.55
2019-05-13T06:12:08.666Z,0.37
2019-05-13T06:14:38.683Z,0.50
2019-05-13T06:17:08.599Z,0.60
2019-05-13T06:19:38.513Z,0.50
2019-05-13T06:22:08.427Z,0.50
2019-05-13T06:24:38.547Z,0.70
2019-05-13T06:27:08.461Z,0.50
2019-05-13T06:29:38.376Z,0.10
2019-05-13T06:32:19.067Z,0.20
2019-05-13T06:34:41.499Z,0.55
2019-05-13T06:37:11.527Z,0.60
2019-05-13T06:39:42.757Z,0.40
2019-05-13T06:42:12.661Z,0.15
2019-05-13T06:44:42.583Z,0.40
2019-05-13T06:47:12.492Z,0.20
2019-05-13T06:49:42.945Z,0.50
2019-05-13T06:52:13.037Z,0.28
2019-05-13T06:54:42.933Z,0.30
2019-05-13T06:57:13.591Z,0.30
2019-05-13T06:59:43.908Z,0.30
2019-05-13T07:02:13.823Z,0.53
2019-05-13T07:04:43.738Z,0.30
2019-05-13T07:07:17.111Z,0.25
2019-05-13T07:09:45.205Z,0.30
2019-05-13T07:12:15.223Z,0.30
2019-05-13T07:14:45.445Z,0.40
2019-05-13T07:17:15.671Z,0.57
2019-05-13T07:19:45.565Z,1.10
2019-05-13T07:22:15.498Z,0.30
2019-05-13T07:24:45.317Z,0.23
2019-05-13T07:27:15.224Z,0.30
2019-05-13T07:29:46.061Z,0.45
2019-05-13T07:32:15.976Z,0.20
2019-05-13T07:34:45.899Z,0.40
2019-05-13T07:37:15.805Z,0.93
2019-05-13T07:39:45.905Z,1.77
2019-05-13T07:42:15.844Z,2.58
2019-05-13T07:44:45.859Z,5.95
2019-05-13T07:47:16.162Z,2.67
2019-05-13T07:49:46.198Z,7.33
2019-05-13T07:52:16.114Z,1.42
2019-05-13T07:54:46.028Z,4.83
2019-05-13T07:57:17.786Z,2.17
2019-05-13T07:59:47.702Z,4.05
2019-05-13T08:02:17.620Z,1.45
2019-05-13T08:04:49.526Z,1.42
2019-05-13T08:07:19.084Z,2.22
2019-05-13T08:09:51.357Z,4.92
2019-05-13T08:12:21.593Z,4.35
2019-05-13T08:14:52.284Z,3.70
2019-05-13T08:17:22.575Z,4.42
2019-05-13T08:19:53.675Z,1.40
2019-05-13T08:22:23.499Z,2.45
2019-05-13T08:24:54.451Z,0.30
2019-05-13T08:27:30.544Z,0.47
2019-05-13T08:29:55.958Z,0.70
2019-05-13T08:32:25.803Z,0.90
2019-05-13T08:35:01.229Z,1.30
2019-05-13T08:37:27.110Z,1.72
2019-05-13T08:39:56.961Z,1.10
2019-05-13T08:42:26.798Z,0.88
2019-05-13T08:44:56.647Z,1.05
2019-05-13T08:47:26.485Z,0.70
2019-05-13T08:49:56.325Z,1.27
2019-05-13T08:52:26.165Z,0.80
2019-05-13T08:54:56.017Z,2.50
2019-05-13T08:57:25.858Z,1.60
2019-05-13T08:59:55.708Z,0.70
2019-05-13T09:02:25.542Z,1.02
2019-05-13T09:04:55.394Z,1.30
2019-05-13T09:07:25.319Z,0.55
2019-05-13T09:09:55.158Z,0.50
2019-05-13T09:12:32.266Z,1.05
2019-05-13T09:14:56.721Z,0.95
2019-05-13T09:17:26.575Z,0.93
2019-05-13T09:19:56.423Z,1.05
2019-05-13T09:22:26.286Z,0.62
2019-05-13T09:24:56.127Z,1.00
2019-05-13T09:27:26.087Z,1.32
2019-05-13T09:29:56.001Z,0.93
2019-05-13T09:32:26.331Z,0.40
2019-05-13T09:34:56.244Z,0.70
2019-05-13T09:37:26.156Z,0.20
2019-05-13T09:39:56.304Z,0.62
2019-05-13T09:42:26.190Z,0.50
2019-05-13T09:44:56.413Z,0.60
2019-05-13T09:47:28.461Z,0.30
2019-05-13T09:49:58.192Z,0.68
2019-05-13T09:52:28.103Z,0.60
2019-05-13T09:54:58.017Z,0.90
2019-05-13T09:57:27.846Z,0.30
2019-05-13T09:59:58.768Z,0.30
2019-05-13T10:02:29.022Z,0.90
2019-05-13T10:04:58.872Z,0.78
2019-05-13T10:07:28.710Z,0.70
2019-05-13T10:10:01.191Z,0.57
2019-05-13T10:12:31.996Z,0.57
2019-05-13T10:15:02.327Z,0.37
2019-05-13T10:17:32.260Z,0.35
2019-05-13T10:20:02.378Z,0.60
2019-05-13T10:22:32.636Z,1.10
2019-05-13T10:25:02.774Z,1.70
2019-05-13T10:27:32.838Z,2.90
2019-05-13T10:30:02.854Z,1.95
2019-05-13T10:32:32.823Z,2.15
2019-05-13T10:35:03.560Z,2.27
2019-05-13T10:37:33.739Z,2.58
2019-05-13T10:40:04.016Z,1.85
2019-05-13T10:42:34.893Z,2.15
2019-05-13T10:45:05.022Z,1.20
2019-05-13T10:47:35.262Z,1.17
2019-05-13T10:50:06.542Z,0.90
2019-05-13T10:52:36.395Z,0.70
2019-05-13T10:55:07.062Z,1.20
2019-05-13T10:57:37.504Z,1.60
2019-05-13T11:00:07.887Z,1.47
2019-05-13T11:02:37.739Z,0.80
2019-05-13T11:05:07.587Z,0.70
2019-05-13T11:07:37.533Z,1.00
2019-05-13T11:10:07.550Z,0.80
2019-05-13T11:12:37.461Z,0.40
2019-05-13T11:15:07.375Z,0.65
2019-05-13T11:17:37.293Z,0.45
2019-05-13T11:20:07.604Z,0.30
2019-05-13T11:22:37.530Z,0.25
2019-05-13T11:25:07.445Z,0.30
2019-05-13T11:27:38.385Z,0.30
2019-05-13T11:30:08.492Z,1.10
2019-05-13T11:32:38.335Z,0.40
2019-05-13T11:35:08.235Z,0.33
2019-05-13T11:37:38.145Z,0.30
2019-05-13T11:40:08.050Z,0.85
2019-05-13T11:42:37.894Z,0.42
2019-05-13T11:45:07.985Z,0.60
2019-05-13T11:47:37.853Z,0.35
2019-05-13T11:50:07.977Z,0.70
2019-05-13T11:52:37.822Z,0.40
2019-05-13T11:55:08.101Z,0.45
2019-05-13T11:57:37.942Z,0.30
2019-05-13T12:00:12.893Z,0.50
2019-05-13T12:02:42.531Z,0.60
2019-05-13T12:05:12.433Z,0.40
2019-05-13T12:07:42.603Z,0.47
2019-05-13T12:10:12.826Z,0.47
2019-05-13T12:12:44.071Z,0.33
2019-05-13T12:15:26.933Z,0.50
2019-05-13T12:17:46.658Z,0.65
2019-05-13T12:20:16.503Z,0.30
2019-05-13T12:22:46.549Z,0.57
2019-05-13T12:25:16.419Z,0.72
2019-05-13T12:27:46.581Z,0.75
2019-05-13T12:30:16.410Z,1.32
2019-05-13T12:32:46.255Z,0.68
2019-05-13T12:35:16.096Z,0.50
2019-05-13T12:37:45.978Z,0.40
2019-05-13T12:40:15.773Z,0.90
2019-05-13T12:42:47.182Z,0.88
2019-05-13T12:45:17.078Z,1.15
2019-05-13T12:47:46.925Z,1.20
2019-05-13T12:50:16.770Z,0.78
2019-05-13T12:52:46.609Z,1.10
2019-05-13T12:55:16.462Z,0.80
2019-05-13T12:57:46.300Z,0.88
2019-05-13T13:00:16.142Z,1.10
2019-05-13T13:02:51.492Z,0.90
2019-05-13T13:05:20.619Z,0.85
2019-05-13T13:08:13.390Z,0.82
2019-05-13T13:10:23.127Z,0.98
2019-05-13T13:12:54.685Z,1.02
2019-05-13T13:17:55.833Z,1.52
2019-05-13T13:20:26.110Z,1.30
2019-05-13T13:22:55.935Z,0.70
2019-05-13T13:25:25.778Z,1.00
2019-05-13T13:28:09.915Z,1.35
2019-05-13T13:30:27.159Z,1.02
2019-05-13T13:32:56.998Z,1.00
2019-05-13T13:35:26.839Z,1.00
2019-05-13T13:37:56.749Z,1.50
2019-05-13T13:40:29.516Z,2.55
2019-05-13T13:42:58.125Z,1.35
2019-05-13T13:45:28.262Z,0.90
2019-05-13T13:48:03.678Z,0.88
2019-05-13T13:50:33.343Z,0.90
2019-05-13T13:53:01.136Z,1.40
2019-05-13T13:55:32.221Z,1.20
2019-05-13T13:58:02.514Z,0.95
2019-05-13T14:00:40.585Z,1.57
2019-05-13T14:03:06.531Z,2.22
2019-05-13T14:05:36.156Z,1.42
2019-05-13T14:06:50.059Z,1.10
2019-05-13T14:08:06.477Z,1.60
2019-05-13T14:10:36.625Z,1.27
2019-05-13T14:13:06.472Z,1.07
2019-05-13T14:15:36.314Z,1.35
2019-05-13T14:18:06.615Z,1.20
2019-05-13T14:20:36.489Z,0.78
2019-05-13T14:23:06.305Z,1.25
2019-05-13T14:25:36.151Z,1.05
2019-05-13T14:28:06.489Z,1.35
2019-05-13T14:30:36.748Z,1.50
2019-05-13T14:33:06.783Z,1.32
2019-05-13T14:35:37.863Z,0.93
2019-05-13T14:38:07.711Z,1.50
2019-05-13T14:40:37.559Z,1.70
2019-05-13T14:43:07.481Z,1.30
2019-05-13T14:45:37.321Z,1.52
2019-05-13T14:48:07.166Z,1.82
2019-05-13T14:50:37.007Z,1.42
2019-05-13T14:53:06.841Z,1.40
2019-05-13T14:55:36.688Z,1.52
2019-05-13T14:58:06.822Z,1.07
2019-05-13T15:00:36.666Z,1.50
2019-05-13T15:03:06.507Z,0.90
2019-05-13T15:05:36.341Z,0.98
2019-05-13T15:08:06.224Z,1.20
2019-05-13T15:10:36.062Z,0.93
2019-05-13T15:13:05.912Z,1.22
2019-05-13T15:15:36.834Z,1.15
2019-05-13T15:18:06.714Z,1.62
2019-05-13T15:20:36.565Z,1.98
2019-05-13T15:23:06.502Z,2.22
2019-05-13T15:25:36.651Z,2.20
2019-05-13T15:28:06.496Z,2.12
2019-05-13T15:30:36.701Z,1.52
2019-05-13T15:33:06.602Z,1.57
2019-05-13T15:35:36.493Z,1.70
2019-05-13T15:38:06.325Z,1.35
2019-05-13T15:40:36.171Z,1.27
2019-05-13T15:43:06.384Z,1.55
2019-05-13T15:45:36.225Z,1.35
2019-05-13T15:48:06.188Z,1.37
2019-05-13T15:50:36.102Z,1.40
2019-05-13T15:53:06.428Z,2.02
2019-05-13T15:55:36.342Z,1.90
2019-05-13T15:58:06.258Z,2.15
2019-05-13T16:00:36.171Z,2.17
2019-05-13T16:03:06.188Z,1.80
2019-05-13T16:05:36.106Z,1.80
2019-05-13T16:08:07.451Z,2.05
2019-05-13T16:10:37.366Z,2.22
2019-05-13T16:13:19.179Z,2.20
2019-05-13T16:15:49.021Z,2.12
2019-05-13T16:18:19.264Z,1.98
2019-05-13T16:20:49.213Z,2.20
2019-05-13T16:23:21.159Z,2.65
2019-05-13T16:25:52.145Z,2.00
2019-05-13T16:28:22.540Z,1.92
2019-05-13T16:30:54.590Z,2.10
2019-05-13T16:33:24.520Z,2.42
2019-05-13T16:35:54.440Z,2.27
2019-05-13T16:38:24.352Z,2.67
2019-05-13T16:40:54.264Z,2.37
2019-05-13T16:43:24.180Z,2.65
2019-05-13T16:45:54.408Z,2.67
2019-05-13T16:48:24.727Z,2.90
2019-05-13T16:50:55.551Z,3.20
2019-05-13T16:53:26.081Z,3.15
2019-05-13T16:55:56.212Z,3.30
2019-05-13T16:58:26.129Z,3.50
2019-05-13T17:00:56.084Z,4.70
2019-05-13T17:03:26.164Z,3.20
2019-05-13T17:05:56.588Z,3.20
2019-05-13T17:08:26.503Z,3.27
2019-05-13T17:10:56.417Z,4.17
2019-05-13T17:13:26.434Z,3.83
2019-05-13T17:15:56.349Z,3.15
2019-05-13T17:18:26.376Z,4.17
2019-05-13T17:20:56.283Z,3.22
2019-05-13T17:23:26.111Z,3.40
2019-05-13T17:25:56.010Z,3.08
2019-05-13T17:28:26.027Z,3.50
2019-05-13T17:30:56.043Z,4.28
2019-05-13T17:33:25.959Z,3.83
2019-05-13T17:35:55.875Z,3.70
2019-05-13T17:38:26.096Z,3.70
2019-05-13T17:40:56.010Z,4.17
2019-05-13T17:43:25.926Z,3.72
2019-05-13T17:45:55.825Z,3.72
2019-05-13T17:48:29.398Z,3.80
2019-05-13T17:50:57.308Z,3.67
2019-05-13T17:53:27.242Z,3.20
2019-05-13T17:55:57.653Z,3.33
2019-05-13T17:58:27.565Z,3.15
2019-05-13T18:00:57.479Z,2.87
2019-05-13T18:03:27.908Z,3.12
2019-05-13T18:05:57.923Z,2.52
2019-05-13T18:08:27.846Z,4.20
2019-05-13T18:10:57.754Z,6.30
2019-05-13T18:13:28.079Z,3.80
2019-05-13T18:15:57.994Z,4.28
2019-05-13T18:18:40.250Z,6.22
2019-05-13T18:21:02.741Z,4.92
2019-05-13T18:23:32.656Z,4.20
2019-05-13T18:26:02.589Z,3.22
2019-05-13T18:28:32.585Z,4.70
2019-05-13T18:31:02.601Z,3.35
2019-05-13T18:33:32.519Z,3.33
2019-05-13T18:36:02.534Z,3.08
2019-05-13T18:38:32.449Z,2.85
2019-05-13T18:41:02.363Z,2.75
2019-05-13T18:43:32.319Z,1.87
2019-05-13T18:46:03.219Z,2.10
2019-05-13T18:48:33.133Z,2.52
2019-05-13T18:51:03.054Z,2.40
2019-05-13T18:53:33.272Z,2.22
2019-05-13T18:56:03.184Z,1.72
2019-05-13T18:58:33.099Z,2.37
2019-05-13T19:01:03.425Z,1.90
2019-05-13T19:03:33.339Z,2.40
2019-05-13T19:06:03.254Z,2.72
2019-05-13T19:08:33.168Z,2.45
2019-05-13T19:11:03.086Z,2.27
2019-05-13T19:13:35.864Z,2.98
2019-05-13T19:18:34.979Z,2.30
2019-05-13T19:21:04.892Z,2.62
2019-05-13T19:23:34.740Z,2.60
2019-05-13T19:26:05.747Z,1.85
2019-05-13T19:28:35.664Z,2.80
2019-05-13T19:31:05.575Z,2.85
2019-05-13T19:33:35.593Z,2.85
2019-05-13T19:36:05.509Z,3.02
2019-05-13T19:38:35.424Z,3.00
2019-05-13T19:41:05.339Z,2.70
2019-05-13T19:43:36.261Z,2.67
2019-05-13T19:46:06.194Z,3.72
2019-05-13T19:48:36.107Z,3.27
2019-05-13T19:51:06.024Z,3.00
2019-05-13T19:53:35.938Z,2.70
2019-05-13T19:56:05.865Z,2.98
2019-05-13T19:58:35.870Z,2.35
2019-05-13T20:01:05.785Z,2.85
2019-05-13T20:03:35.703Z,3.12
2019-05-13T20:06:05.614Z,3.00
2019-05-13T20:08:35.631Z,3.10
2019-05-13T20:11:05.649Z,2.87
2019-05-13T20:13:35.870Z,2.72
2019-05-13T20:16:05.887Z,2.83
2019-05-13T20:18:35.907Z,2.47
2019-05-13T20:21:06.236Z,2.08
2019-05-13T20:23:36.657Z,2.22
2019-05-13T20:26:06.495Z,2.20
2019-05-13T20:28:36.384Z,2.45
2019-05-13T20:31:06.614Z,2.72
2019-05-13T20:33:39.899Z,2.50
2019-05-13T20:36:08.074Z,2.27
2019-05-13T20:38:37.970Z,2.35
2019-05-13T20:41:07.823Z,2.50
2019-05-13T20:43:37.699Z,2.90
2019-05-13T20:46:07.632Z,2.15
2019-05-13T20:48:37.545Z,2.08
2019-05-13T20:51:07.460Z,1.90
2019-05-13T20:53:37.374Z,3.40
2019-05-13T20:56:07.290Z,2.25
2019-05-13T20:58:37.309Z,2.55
2019-05-13T21:01:07.223Z,2.60
2019-05-13T21:03:57.003Z,2.47
2019-05-13T21:06:26.917Z,3.92
2019-05-13T21:08:56.937Z,3.10
2019-05-13T21:11:26.850Z,2.30
2019-05-13T21:13:56.922Z,3.05
2019-05-13T21:16:26.909Z,3.05
2019-05-13T21:18:56.799Z,2.52
2019-05-13T21:21:26.817Z,3.02
2019-05-13T21:23:56.833Z,3.17
2019-05-13T21:26:26.851Z,2.50
2019-05-13T21:28:56.769Z,2.58
2019-05-13T21:31:26.894Z,2.15
2019-05-13T21:33:56.800Z,2.60
2019-05-13T21:36:26.716Z,2.62
2019-05-13T21:38:56.631Z,2.30
2019-05-13T21:41:26.464Z,3.45
2019-05-13T21:43:56.357Z,3.77
2019-05-13T21:46:26.273Z,2.92
2019-05-13T21:48:56.188Z,3.08
2019-05-13T21:51:26.108Z,3.40
2019-05-13T21:53:56.018Z,3.40
2019-05-13T21:56:26.035Z,3.20
2019-05-13T21:58:56.053Z,3.52
2019-05-13T22:01:25.970Z,3.80
2019-05-13T22:03:56.291Z,3.30
2019-05-13T22:06:26.513Z,3.87
2019-05-13T22:08:56.353Z,3.50
2019-05-13T22:11:26.241Z,3.98
2019-05-13T22:13:56.157Z,3.85
2019-05-13T22:16:26.071Z,3.60
2019-05-13T22:18:55.985Z,3.75
2019-05-13T22:21:25.902Z,3.55
2019-05-13T22:23:55.819Z,3.77
2019-05-13T22:26:25.735Z,4.33
2019-05-13T22:28:56.054Z,3.35
2019-05-13T22:31:26.280Z,4.00
2019-05-13T22:33:56.204Z,4.42
2019-05-13T22:36:26.018Z,3.98
2019-05-13T22:38:56.020Z,4.40
2019-05-13T22:41:25.935Z,4.30
2019-05-13T22:43:58.882Z,3.87
2019-05-13T22:46:28.632Z,4.47
2019-05-13T22:49:01.189Z,3.87
2019-05-13T22:51:32.032Z,4.22
2019-05-13T22:54:02.166Z,4.10
2019-05-13T22:56:32.083Z,4.03
2019-05-13T22:59:02.214Z,4.15
2019-05-13T23:01:34.061Z,5.03
2019-05-13T23:04:03.975Z,4.10
2019-05-13T23:06:33.890Z,4.10
2019-05-13T23:09:04.932Z,4.17
2019-05-13T23:11:34.846Z,3.92
2019-05-13T23:14:09.526Z,4.58
2019-05-13T23:16:36.724Z,4.25
2019-05-13T23:19:06.638Z,4.92
2019-05-13T23:21:36.554Z,4.08
2019-05-13T23:24:06.469Z,4.30
2019-05-13T23:26:36.389Z,4.03
2019-05-13T23:29:06.299Z,3.98
2019-05-13T23:31:36.213Z,4.35
2019-05-13T23:34:06.128Z,3.92
2019-05-13T23:36:36.043Z,4.47
2019-05-13T23:39:07.109Z,5.72
2019-05-13T23:41:37.205Z,4.37
2019-05-13T23:44:20.895Z,4.30
2019-05-13T23:46:38.672Z,4.35
2019-05-13T23:49:08.996Z,3.92
2019-05-13T23:51:41.007Z,3.75
2019-05-13T23:54:12.232Z,3.72
2019-05-13T23:56:42.427Z,3.60
2019-05-13T23:59:12.342Z,3.12
